Time;durP1;ratioP1;P1;durP2;ratioP2;P2;SDS_P1;SDS_P2;PMS_P1;PMS_P2;Temp;Humidity;BMP_temperature;BMP_pressure;BME280_temperature;BME280_humidity;BME280_pressure;Samples;Min_cycle;Max_cycle;Signal;HPM_P1;HPM_P2
2023/05/27 00:02:15;;;;;;;10.98;4.10;;;16.30;47.60;;;;;;5010689;28;20065;-45
2023/05/27 00:04:42;;;;;;;8.93;3.35;;;16.20;48.00;;;;;;5008723;28;20061;-46
2023/05/27 00:07:14;;;;;;;7.50;3.38;;;16.20;47.90;;;;;;5011890;28;20041;-46
2023/05/27 00:09:44;;;;;;;8.38;3.40;;;16.20;47.90;;;;;;5010723;28;20046;-45
2023/05/27 00:12:11;;;;;;;9.05;4.45;;;16.10;48.20;;;;;;5010533;28;20041;-46
2023/05/27 00:14:37;;;;;;;11.90;3.90;;;16.10;48.10;;;;;;5010439;28;20491;-44
2023/05/27 00:17:08;;;;;;;7.63;3.65;;;16.00;48.00;;;;;;5012343;28;20045;-46
2023/05/27 00:19:35;;;;;;;8.57;3.67;;;16.00;48.30;;;;;;4986603;28;20363;-47
2023/05/27 00:22:09;;;;;;;9.70;3.55;;;15.90;48.30;;;;;;5011024;28;20053;-46
2023/05/27 00:24:41;;;;;;;9.85;4.20;;;15.90;48.60;;;;;;5009314;28;20034;-45
2023/05/27 00:27:09;;;;;;;10.73;4.07;;;15.80;48.50;;;;;;5012161;28;20045;-45
2023/05/27 00:29:37;;;;;;;8.98;3.95;;;15.70;48.70;;;;;;5009015;28;20189;-46
2023/05/27 00:32:06;;;;;;;6.72;3.35;;;15.70;48.80;;;;;;5010338;28;20054;-46
2023/05/27 00:34:35;;;;;;;10.40;4.35;;;15.70;48.90;;;;;;4992523;28;20060;-46
2023/05/27 00:37:05;;;;;;;9.70;3.60;;;15.60;49.00;;;;;;5011173;28;20053;-47
2023/05/27 00:39:36;;;;;;;9.88;4.40;;;15.50;49.20;;;;;;4994399;28;20046;-47
2023/05/27 00:42:05;;;;;;;6.85;3.67;;;15.50;49.10;;;;;;5009606;28;20109;-50
2023/05/27 00:44:32;;;;;;;9.15;3.72;;;15.50;49.20;;;;;;4992653;28;20050;-46
2023/05/27 00:47:00;;;;;;;10.32;4.40;;;15.40;49.40;;;;;;4993189;28;20086;-46
2023/05/27 00:49:41;;;;;;;9.07;3.85;;;15.40;49.50;;;;;;5009911;28;20096;-46
2023/05/27 00:52:12;;;;;;;13.25;4.28;;;15.30;49.80;;;;;;4993266;28;20133;-45
2023/05/27 00:54:43;;;;;;;7.75;3.80;;;15.30;49.50;;;;;;4987789;28;20422;-46
2023/05/27 00:57:10;;;;;;;11.23;5.00;;;15.20;49.80;;;;;;5006420;28;20034;-47
2023/05/27 00:59:42;;;;;;;7.90;3.67;;;15.20;49.80;;;;;;5009883;28;20049;-45
2023/05/27 01:02:11;;;;;;;8.75;4.40;;;15.10;49.90;;;;;;5010207;28;20042;-50
2023/05/27 01:04:50;;;;;;;9.73;4.55;;;15.10;50.10;;;;;;4986772;28;20054;-46
2023/05/27 01:07:46;;;;;;;12.15;4.05;;;15.10;50.20;;;;;;5010942;28;20041;-47
2023/05/27 01:10:40;;;;;;;10.50;5.15;;;15.10;51.30;;;;;;5010152;28;20395;-45
2023/05/27 01:13:31;;;;;;;8.32;3.50;;;15.00;51.10;;;;;;5008763;28;20605;-45
2023/05/27 01:16:01;;;;;;;9.52;3.95;;;15.00;51.20;;;;;;5007814;28;20061;-47
2023/05/27 01:18:34;;;;;;;10.90;4.55;;;15.00;50.50;;;;;;4992449;28;20108;-46
2023/05/27 01:21:12;;;;;;;10.60;4.53;;;14.90;50.50;;;;;;4986872;28;20042;-50
2023/05/27 01:23:47;;;;;;;8.77;4.18;;;14.90;50.60;;;;;;4990262;28;20048;-50
2023/05/27 01:26:14;;;;;;;8.82;3.70;;;14.80;51.00;;;;;;5009293;28;20498;-46
2023/05/27 01:28:46;;;;;;;7.93;3.58;;;14.80;50.50;;;;;;4988766;28;20429;-49
2023/05/27 01:31:23;;;;;;;12.85;4.28;;;14.80;50.30;;;;;;5009972;28;20054;-46
2023/05/27 01:34:01;;;;;;;6.82;3.70;;;14.70;50.80;;;;;;4991294;28;20041;-48
2023/05/27 01:36:33;;;;;;;10.55;4.07;;;14.70;51.10;;;;;;5009601;28;20049;-46
2023/05/27 01:39:02;;;;;;;8.07;4.43;;;14.60;50.50;;;;;;4992196;28;20506;-48
2023/05/27 01:41:31;;;;;;;8.13;4.03;;;14.50;50.40;;;;;;4992411;28;20038;-48
2023/05/27 01:44:03;;;;;;;10.45;3.97;;;14.50;50.70;;;;;;4991988;28;20573;-48
2023/05/27 01:46:30;;;;;;;10.25;4.00;;;14.50;50.80;;;;;;4985924;28;20518;-48
2023/05/27 01:48:56;;;;;;;8.70;3.90;;;14.40;51.10;;;;;;4991689;28;20049;-46
2023/05/27 01:51:27;;;;;;;12.00;4.68;;;14.30;51.10;;;;;;4991853;28;20056;-46
2023/05/27 01:53:58;;;;;;;7.07;3.90;;;14.30;51.30;;;;;;4981845;28;20069;-48
2023/05/27 01:56:27;;;;;;;9.48;4.07;;;14.30;51.30;;;;;;5010889;28;20527;-46
2023/05/27 01:58:57;;;;;;;8.77;3.75;;;14.20;51.10;;;;;;4991726;28;20597;-50
2023/05/27 02:01:30;;;;;;;9.48;4.97;;;14.20;51.30;;;;;;4992242;28;20137;-46
2023/05/27 02:03:58;;;;;;;8.23;5.13;;;14.20;51.20;;;;;;4989540;28;20497;-46
2023/05/27 02:06:32;;;;;;;8.80;3.55;;;14.10;51.10;;;;;;4992329;28;20288;-49
2023/05/27 02:08:59;;;;;;;7.70;4.40;;;14.10;51.50;;;;;;5009941;28;20065;-48
2023/05/27 02:11:25;;;;;;;12.93;4.72;;;14.10;51.40;;;;;;4991525;28;20506;-46
2023/05/27 02:13:52;;;;;;;7.55;3.72;;;14.00;51.40;;;;;;5008181;28;20102;-51
2023/05/27 02:16:26;;;;;;;9.23;4.82;;;13.90;51.40;;;;;;4997202;28;20042;-47
2023/05/27 02:18:54;;;;;;;8.20;3.70;;;13.90;52.30;;;;;;4991069;28;20053;-47
2023/05/27 02:21:21;;;;;;;7.15;4.30;;;13.90;51.60;;;;;;4991358;28;20096;-46
2023/05/27 02:23:51;;;;;;;12.88;3.90;;;13.90;51.70;;;;;;5007975;28;20042;-47
2023/05/27 02:26:18;;;;;;;6.75;4.78;;;13.80;52.00;;;;;;5008902;28;20045;-47
2023/05/27 02:28:49;;;;;;;12.15;4.78;;;13.80;52.00;;;;;;5007754;28;20046;-45
2023/05/27 02:31:16;;;;;;;10.63;4.30;;;13.80;52.30;;;;;;5009120;28;20121;-45
2023/05/27 02:33:43;;;;;;;9.85;4.40;;;13.70;52.50;;;;;;4988481;28;20093;-45
2023/05/27 02:36:20;;;;;;;12.90;5.00;;;13.70;52.60;;;;;;4991542;28;20046;-48
2023/05/27 02:38:52;;;;;;;11.77;5.22;;;13.70;52.90;;;;;;5002218;28;20080;-49
2023/05/27 02:41:19;;;;;;;11.35;4.90;;;13.70;52.50;;;;;;4999065;28;20058;-47
2023/05/27 02:43:46;;;;;;;7.57;4.22;;;13.70;52.60;;;;;;4990747;28;20418;-49
2023/05/27 02:46:14;;;;;;;8.68;4.40;;;13.70;52.40;;;;;;5008548;28;20125;-48
2023/05/27 02:48:43;;;;;;;12.35;4.57;;;13.60;52.50;;;;;;5009581;28;20061;-45
2023/05/27 02:51:20;;;;;;;10.68;4.93;;;13.60;52.50;;;;;;4991474;28;20046;-48
2023/05/27 02:53:47;;;;;;;6.97;4.10;;;13.60;52.60;;;;;;4986771;28;20100;-46
2023/05/27 02:56:17;;;;;;;8.45;4.30;;;13.50;52.70;;;;;;5003359;28;20052;-47
2023/05/27 02:58:44;;;;;;;10.55;4.05;;;13.50;52.80;;;;;;4991155;28;20050;-48
2023/05/27 03:01:13;;;;;;;7.57;4.30;;;13.50;52.90;;;;;;4991007;28;20044;-48
2023/05/27 03:03:49;;;;;;;8.82;3.78;;;13.40;52.90;;;;;;4985916;28;20046;-47
2023/05/27 03:06:16;;;;;;;10.57;4.55;;;13.40;53.20;;;;;;5009941;28;20049;-50
2023/05/27 03:08:47;;;;;;;11.10;4.60;;;13.40;53.00;;;;;;4996493;28;20160;-47
2023/05/27 03:11:17;;;;;;;11.90;4.82;;;13.30;53.00;;;;;;5018690;28;20115;-50
2023/05/27 03:13:45;;;;;;;6.22;4.00;;;13.30;53.20;;;;;;5012039;28;20112;-49
2023/05/27 03:16:13;;;;;;;8.20;4.25;;;13.30;53.20;;;;;;5006127;28;20534;-47
2023/05/27 03:18:40;;;;;;;9.15;5.18;;;13.30;53.10;;;;;;5022327;22;20041;-42
2023/05/27 03:21:09;;;;;;;10.50;4.78;;;13.30;53.20;;;;;;4997311;28;20042;-41
2023/05/27 03:23:41;;;;;;;11.15;4.78;;;13.20;53.20;;;;;;5013992;28;20466;-43
2023/05/27 03:26:07;;;;;;;11.30;4.28;;;13.20;53.50;;;;;;5011011;28;20050;-42
2023/05/27 03:28:34;;;;;;;7.88;4.70;;;13.20;53.30;;;;;;4989151;28;20105;-45
2023/05/27 03:31:05;;;;;;;8.55;4.68;;;13.20;53.30;;;;;;4986081;28;20100;-41
2023/05/27 03:33:43;;;;;;;10.98;4.70;;;13.10;53.30;;;;;;4974259;28;20046;-43
2023/05/27 03:36:10;;;;;;;10.15;4.85;;;13.10;53.30;;;;;;4980200;28;20097;-42
2023/05/27 03:38:37;;;;;;;9.25;4.50;;;13.10;53.40;;;;;;4988166;28;20121;-42
2023/05/27 03:41:06;;;;;;;12.13;5.00;;;13.00;53.40;;;;;;4971900;28;20042;-42
2023/05/27 03:43:35;;;;;;;5.93;4.47;;;13.00;53.50;;;;;;4988085;28;20046;-45
2023/05/27 03:46:02;;;;;;;9.23;4.97;;;13.00;53.70;;;;;;4987324;28;20131;-43
2023/05/27 03:48:29;;;;;;;9.07;4.85;;;12.90;54.10;;;;;;4991256;28;20050;-43
2023/05/27 03:51:00;;;;;;;11.55;5.35;;;12.90;54.20;;;;;;4972058;28;20142;-42
2023/05/27 03:53:29;;;;;;;12.65;5.30;;;12.90;54.40;;;;;;4991987;28;20073;-45
2023/05/27 03:55:58;;;;;;;12.10;5.47;;;12.90;54.50;;;;;;4991386;28;20113;-42
2023/05/27 03:58:27;;;;;;;11.30;6.40;;;12.90;54.50;;;;;;4993854;28;20054;-43
2023/05/27 04:00:54;;;;;;;12.93;5.63;;;12.90;54.90;;;;;;4990988;28;20125;-41
2023/05/27 04:03:23;;;;;;;9.07;5.30;;;12.90;55.20;;;;;;4991120;28;20411;-42
2023/05/27 04:05:50;;;;;;;12.02;5.57;;;12.90;55.20;;;;;;4991397;28;20074;-43
2023/05/27 04:08:22;;;;;;;8.13;4.75;;;13.00;55.40;;;;;;4992514;28;20129;-44
2023/05/27 04:10:48;;;;;;;8.50;5.10;;;12.90;55.40;;;;;;4992304;28;20550;-41
2023/05/27 04:13:16;;;;;;;12.70;5.85;;;13.00;55.40;;;;;;4972314;28;20055;-42
2023/05/27 04:15:45;;;;;;;10.20;5.20;;;13.00;55.40;;;;;;4990195;28;20096;-46
2023/05/27 04:18:17;;;;;;;13.30;5.45;;;13.00;55.50;;;;;;4990183;28;20046;-43
2023/05/27 04:20:48;;;;;;;9.65;5.88;;;13.10;55.60;;;;;;4991072;28;20034;-42
2023/05/27 04:23:23;;;;;;;10.18;5.47;;;13.10;55.60;;;;;;4971745;28;20049;-43
2023/05/27 04:25:54;;;;;;;11.30;5.03;;;13.10;55.70;;;;;;4990714;28;20050;-41
2023/05/27 04:28:34;;;;;;;11.32;6.18;;;13.20;55.70;;;;;;4989525;28;20042;-42
2023/05/27 04:31:03;;;;;;;11.98;5.40;;;13.20;56.00;;;;;;4990728;28;20105;-42
2023/05/27 04:33:39;;;;;;;10.43;4.90;;;13.20;55.70;;;;;;4990350;28;20085;-42
2023/05/27 04:36:16;;;;;;;13.15;5.88;;;13.20;55.70;;;;;;4974607;28;20541;-44
2023/05/27 04:38:56;;;;;;;14.07;6.07;;;13.30;55.80;;;;;;4989384;28;20069;-41
2023/05/27 04:41:27;;;;;;;11.05;5.13;;;13.30;55.70;;;;;;4990466;28;20053;-42
2023/05/27 04:44:09;;;;;;;11.07;5.03;;;13.30;56.00;;;;;;4970297;28;20043;-41
2023/05/27 04:46:43;;;;;;;18.67;6.22;;;13.40;55.90;;;;;;4970736;28;20474;-43
2023/05/27 04:49:10;;;;;;;11.45;5.28;;;13.40;56.20;;;;;;4991203;28;20053;-42
2023/05/27 04:51:38;;;;;;;13.40;5.65;;;13.40;55.90;;;;;;4971149;28;20042;-43
2023/05/27 04:54:05;;;;;;;12.63;5.50;;;13.40;56.10;;;;;;4972419;28;20069;-41
2023/05/27 04:56:38;;;;;;;11.18;5.55;;;13.50;56.10;;;;;;4990600;28;20041;-44
2023/05/27 04:59:16;;;;;;;12.73;5.38;;;13.50;56.10;;;;;;4992465;28;20038;-47
2023/05/27 05:01:59;;;;;;;12.32;5.38;;;13.50;56.10;;;;;;4972501;28;20101;-42
2023/05/27 05:04:32;;;;;;;10.77;5.57;;;13.60;56.40;;;;;;4985909;28;20065;-45
2023/05/27 05:07:01;;;;;;;9.98;5.60;;;13.60;56.00;;;;;;4990032;28;20058;-44
2023/05/27 05:09:29;;;;;;;11.38;5.65;;;13.60;56.10;;;;;;4970003;28;20066;-42
2023/05/27 05:12:03;;;;;;;10.85;5.88;;;13.70;56.10;;;;;;4973468;28;20055;-43
2023/05/27 05:14:34;;;;;;;13.93;6.13;;;13.70;56.00;;;;;;4988737;28;20046;-45
2023/05/27 05:17:01;;;;;;;8.50;4.57;;;13.70;56.00;;;;;;4990355;28;20057;-43
2023/05/27 05:19:31;;;;;;;11.10;5.18;;;13.80;56.00;;;;;;4987415;28;20042;-42
2023/05/27 05:22:00;;;;;;;10.07;6.28;;;13.80;56.30;;;;;;4990727;28;20724;-44
2023/05/27 05:24:34;;;;;;;12.52;5.72;;;13.80;55.90;;;;;;4967337;28;20392;-44
2023/05/27 05:27:01;;;;;;;10.70;5.53;;;13.80;56.00;;;;;;4979840;28;20419;-42
2023/05/27 05:29:30;;;;;;;15.45;5.43;;;13.90;56.00;;;;;;4967476;28;20046;-43
2023/05/27 05:31:59;;;;;;;12.82;6.10;;;13.90;56.00;;;;;;4972516;28;20841;-42
2023/05/27 05:34:26;;;;;;;9.50;5.53;;;13.90;56.00;;;;;;4988930;28;20054;-42
2023/05/27 05:36:55;;;;;;;10.40;5.95;;;14.00;56.10;;;;;;4988824;28;20406;-42
2023/05/27 05:39:28;;;;;;;9.48;5.72;;;14.00;56.10;;;;;;4987784;28;20535;-44
2023/05/27 05:41:56;;;;;;;12.52;6.10;;;14.00;56.50;;;;;;4989457;28;20050;-47
2023/05/27 05:44:23;;;;;;;14.80;5.95;;;14.10;56.10;;;;;;4988150;28;20050;-43
2023/05/27 05:46:52;;;;;;;14.63;6.03;;;14.10;56.20;;;;;;4966412;28;20093;-43
2023/05/27 05:49:21;;;;;;;8.65;5.60;;;14.20;56.20;;;;;;4988314;28;20056;-44
2023/05/27 05:51:53;;;;;;;10.70;4.80;;;14.20;56.00;;;;;;4969690;28;20050;-43
2023/05/27 05:54:27;;;;;;;12.07;6.20;;;14.20;56.20;;;;;;4990062;28;20105;-44
2023/05/27 05:56:56;;;;;;;17.33;6.13;;;14.30;56.00;;;;;;4987523;28;20161;-48
2023/05/27 05:59:33;;;;;;;14.38;5.68;;;14.30;55.90;;;;;;4992997;28;20038;-44
2023/05/27 06:02:02;;;;;;;9.07;5.78;;;14.30;56.00;;;;;;4970772;28;20061;-48
2023/05/27 06:04:35;;;;;;;11.93;5.93;;;14.40;56.30;;;;;;4987768;28;20800;-43
2023/05/27 06:07:02;;;;;;;15.82;6.35;;;14.40;56.10;;;;;;4987838;28;20141;-46
2023/05/27 06:09:58;;;;;;;15.05;6.55;;;14.50;56.00;;;;;;4980888;28;20097;-43
2023/05/27 06:12:33;;;;;;;11.23;5.50;;;14.50;55.80;;;;;;4971092;28;20042;-43
2023/05/27 06:15:06;;;;;;;15.27;5.82;;;14.60;55.80;;;;;;4989703;28;20066;-43
2023/05/27 06:17:41;;;;;;;12.77;5.38;;;14.60;55.90;;;;;;4968312;28;20510;-43
2023/05/27 06:20:08;;;;;;;11.20;5.85;;;14.60;55.70;;;;;;4958896;28;20285;-43
2023/05/27 06:22:35;;;;;;;10.77;5.30;;;14.70;55.80;;;;;;4979652;28;20042;-45
2023/05/27 06:25:23;;;;;;;12.52;5.57;;;14.70;55.80;;;;;;4982418;28;20054;-44
2023/05/27 06:27:56;;;;;;;14.88;6.10;;;14.80;55.60;;;;;;4973878;28;20049;-43
2023/05/27 06:30:23;;;;;;;15.93;6.82;;;14.80;55.60;;;;;;4973225;28;20530;-46
2023/05/27 06:32:51;;;;;;;9.88;7.13;;;14.80;55.60;;;;;;4986239;28;20073;-43
2023/05/27 06:35:21;;;;;;;12.57;6.07;;;14.90;55.60;;;;;;4987271;28;20044;-43
2023/05/27 06:37:50;;;;;;;10.77;5.78;;;14.90;55.70;;;;;;4987909;28;20042;-43
2023/05/27 06:40:17;;;;;;;13.48;6.00;;;15.00;55.80;;;;;;4973731;28;20046;-44
2023/05/27 06:42:45;;;;;;;12.57;5.88;;;15.00;55.60;;;;;;4979558;28;20597;-48
2023/05/27 06:45:25;;;;;;;10.82;5.35;;;15.10;55.60;;;;;;4987574;28;20129;-44
2023/05/27 06:48:03;;;;;;;12.70;5.65;;;15.10;55.70;;;;;;4991076;28;20057;-43
2023/05/27 06:50:29;;;;;;;14.88;6.88;;;15.20;55.70;;;;;;4991537;28;20066;-43
2023/05/27 06:52:56;;;;;;;10.73;5.03;;;15.20;55.50;;;;;;4988510;28;20419;-44
2023/05/27 06:55:43;;;;;;;14.90;5.40;;;15.30;55.50;;;;;;4990999;28;20486;-48
2023/05/27 06:58:25;;;;;;;16.17;5.30;;;15.30;55.30;;;;;;4965783;28;20090;-45
2023/05/27 07:00:58;;;;;;;14.07;6.20;;;15.40;55.30;;;;;;4992407;28;20042;-45
2023/05/27 07:03:31;;;;;;;;;;;15.40;55.30;;;;;;4969545;28;20049;-43
2023/05/27 07:06:05;;;;;;;10.73;5.45;;;15.60;54.90;;;;;;4974063;28;20016;-44
2023/05/27 07:08:41;;;;;;;11.52;5.13;;;15.60;55.00;;;;;;4991627;28;20073;-44
2023/05/27 07:11:19;;;;;;;14.30;5.55;;;15.60;54.90;;;;;;4993240;28;20039;-43
2023/05/27 07:13:55;;;;;;;11.68;5.05;;;15.70;55.10;;;;;;4976584;28;20122;-43
2023/05/27 07:16:26;;;;;;;13.02;5.70;;;15.70;55.10;;;;;;4972046;28;20059;-44
2023/05/27 07:18:55;;;;;;;10.07;4.40;;;15.80;55.00;;;;;;4993437;28;20066;-47
2023/05/27 07:21:42;;;;;;;12.27;5.93;;;15.80;54.70;;;;;;4986761;28;20044;-47
2023/05/27 07:24:14;;;;;;;13.07;5.18;;;15.90;54.70;;;;;;4984075;28;20450;-43
2023/05/27 07:26:41;;;;;;;15.07;5.10;;;16.00;54.60;;;;;;4971177;28;20050;-47
2023/05/27 07:29:11;;;;;;;11.35;5.35;;;16.00;54.60;;;;;;4974591;28;20049;-44
2023/05/27 07:31:58;;;;;;;13.10;4.50;;;16.00;54.40;;;;;;4994257;28;20045;-45
2023/05/27 07:34:29;;;;;;;9.18;4.70;;;16.10;54.30;;;;;;4973917;28;20127;-43
2023/05/27 07:36:57;;;;;;;12.88;5.95;;;16.20;54.10;;;;;;4990736;28;20089;-44
2023/05/27 07:39:26;;;;;;;9.93;4.15;;;16.20;54.30;;;;;;4975800;28;20034;-43
2023/05/27 07:41:56;;;;;;;12.75;4.47;;;16.30;53.90;;;;;;4991707;28;20376;-43
2023/05/27 07:44:27;;;;;;;10.45;4.38;;;16.40;53.90;;;;;;4991329;28;20077;-43
2023/05/27 07:46:57;;;;;;;;;;;16.40;53.70;;;;;;4991266;28;20042;-43
2023/05/27 07:49:27;;;;;;;9.82;4.22;;;16.50;53.40;;;;;;4991555;28;19980;-45
2023/05/27 07:52:32;;;;;;;9.85;4.85;;;16.60;53.00;;;;;;4990503;28;20064;-45
2023/05/27 07:55:10;;;;;;;10.23;4.30;;;16.60;53.30;;;;;;4991138;28;20096;-43
2023/05/27 07:57:36;;;;;;;9.05;4.78;;;16.70;53.10;;;;;;4990700;28;20053;-43
2023/05/27 08:00:06;;;;;;;9.82;4.30;;;16.70;53.20;;;;;;4990622;28;20101;-44
2023/05/27 08:02:51;;;;;;;7.75;5.47;;;16.80;53.00;;;;;;4991827;28;20045;-43
2023/05/27 08:05:21;;;;;;;7.28;4.25;;;16.80;52.60;;;;;;4991142;28;20057;-44
2023/05/27 08:08:02;;;;;;;9.75;4.55;;;16.90;52.80;;;;;;4998502;28;20416;-42
2023/05/27 08:10:48;;;;;;;11.95;4.38;;;17.00;52.90;;;;;;4992930;28;20572;-48
2023/05/27 08:13:37;;;;;;;12.95;5.35;;;17.00;52.50;;;;;;4984272;28;20100;-44
2023/05/27 08:16:21;;;;;;;11.00;4.43;;;17.10;52.80;;;;;;4989224;28;20461;-46
2023/05/27 08:19:03;;;;;;;8.27;4.72;;;17.20;52.50;;;;;;4969514;28;20507;-44
2023/05/27 08:21:52;;;;;;;6.57;4.63;;;17.20;52.30;;;;;;4986889;28;20050;-43
2023/05/27 08:24:38;;;;;;;12.77;4.60;;;17.30;52.20;;;;;;4974209;28;20174;-43
2023/05/27 08:27:20;;;;;;;8.38;4.78;;;17.40;52.00;;;;;;4974160;28;20093;-43
2023/05/27 08:30:01;;;;;;;7.93;3.95;;;17.40;52.00;;;;;;4971687;28;20388;-44
2023/05/27 08:32:52;;;;;;;10.50;4.25;;;17.50;52.20;;;;;;4973612;28;20039;-44
2023/05/27 08:35:26;;;;;;;13.68;5.18;;;17.60;52.10;;;;;;4986389;28;20042;-44
2023/05/27 08:37:56;;;;;;;;;;;17.60;51.80;;;;;;4991675;28;20183;-45
2023/05/27 08:40:28;;;;;;;10.32;4.10;;;17.70;51.50;;;;;;4991080;28;19928;-47
2023/05/27 08:42:57;;;;;;;12.68;5.20;;;17.70;51.50;;;;;;4990380;28;20070;-44
2023/05/27 08:45:27;;;;;;;11.70;4.45;;;17.80;51.30;;;;;;4971374;28;20515;-45
2023/05/27 08:47:54;;;;;;;10.73;3.92;;;17.80;51.60;;;;;;4970497;28;20786;-44
2023/05/27 08:50:33;;;;;;;10.68;5.10;;;17.90;51.80;;;;;;4990279;28;20659;-45
2023/05/27 08:53:05;;;;;;;10.95;5.30;;;18.00;51.20;;;;;;4971439;28;20046;-46
2023/05/27 08:55:34;;;;;;;10.13;4.22;;;18.00;50.90;;;;;;4963881;28;20081;-44
2023/05/27 08:58:11;;;;;;;10.13;4.57;;;18.00;50.90;;;;;;4989015;28;20507;-43
2023/05/27 09:00:42;;;;;;;10.40;5.50;;;18.10;51.30;;;;;;4990447;28;20034;-44
2023/05/27 09:03:18;;;;;;;10.95;5.43;;;18.20;51.40;;;;;;4987875;28;20517;-44
2023/05/27 09:05:47;;;;;;;11.27;4.40;;;18.30;51.00;;;;;;4990463;28;20035;-43
2023/05/27 09:08:16;;;;;;;10.57;4.47;;;18.30;51.00;;;;;;4990848;28;20510;-45
2023/05/27 09:10:48;;;;;;;10.20;4.72;;;18.40;50.50;;;;;;4990952;28;20450;-45
2023/05/27 09:13:26;;;;;;;11.52;4.93;;;18.40;50.30;;;;;;4989998;28;20056;-44
2023/05/27 09:16:03;;;;;;;10.50;5.15;;;18.50;50.50;;;;;;4991295;28;20076;-49
2023/05/27 09:18:35;;;;;;;9.07;4.32;;;18.60;50.00;;;;;;4989437;28;20125;-47
2023/05/27 09:21:05;;;;;;;11.52;5.47;;;18.60;50.00;;;;;;4996830;28;20096;-45
2023/05/27 09:23:40;;;;;;;14.60;5.70;;;18.60;50.10;;;;;;4989941;28;20133;-48
2023/05/27 09:26:12;;;;;;;9.32;4.72;;;18.70;51.00;;;;;;4989152;28;20097;-50
2023/05/27 09:28:41;;;;;;;14.55;4.60;;;18.70;50.20;;;;;;4990715;28;20415;-47
2023/05/27 09:31:08;;;;;;;10.50;5.05;;;18.80;49.90;;;;;;4990788;28;20406;-45
2023/05/27 09:33:38;;;;;;;7.63;4.45;;;18.90;49.90;;;;;;4990169;28;20042;-45
2023/05/27 09:36:08;;;;;;;10.18;4.88;;;18.90;50.00;;;;;;4990464;28;20071;-48
2023/05/27 09:38:36;;;;;;;10.32;4.55;;;19.00;50.40;;;;;;4990653;28;20066;-46
2023/05/27 09:41:05;;;;;;;9.93;4.30;;;19.10;50.20;;;;;;4990484;28;20070;-47
2023/05/27 09:43:32;;;;;;;9.50;4.53;;;19.10;49.50;;;;;;4989691;28;20076;-43
2023/05/27 09:46:15;;;;;;;10.50;4.93;;;19.20;49.20;;;;;;4990525;28;20046;-47
2023/05/27 09:48:42;;;;;;;7.93;4.20;;;19.30;49.30;;;;;;4989084;28;20053;-43
2023/05/27 09:51:12;;;;;;;7.20;4.40;;;19.30;49.10;;;;;;4990311;28;20133;-44
2023/05/27 09:53:42;;;;;;;8.55;4.82;;;19.40;48.80;;;;;;4968138;28;20109;-44
2023/05/27 09:56:09;;;;;;;9.70;5.18;;;19.50;48.30;;;;;;4988504;28;20088;-47
2023/05/27 09:58:45;;;;;;;10.57;4.50;;;19.50;48.80;;;;;;4989495;28;20052;-47
2023/05/27 10:01:12;;;;;;;12.85;4.32;;;19.60;48.40;;;;;;4989383;28;20093;-44
2023/05/27 10:03:44;;;;;;;8.68;4.70;;;19.60;48.40;;;;;;4988758;28;20054;-44
2023/05/27 10:06:16;;;;;;;9.73;4.25;;;19.70;48.60;;;;;;4989280;28;20208;-44
2023/05/27 10:08:46;;;;;;;10.60;4.88;;;19.70;48.30;;;;;;4989385;28;20060;-44
2023/05/27 10:11:13;;;;;;;9.60;4.70;;;19.80;47.80;;;;;;4988741;28;20058;-48
2023/05/27 10:13:45;;;;;;;;;;;19.80;47.70;;;;;;4989906;28;20069;-48
2023/05/27 10:16:21;;;;;;;9.32;4.07;;;19.90;47.80;;;;;;4987041;28;20428;-44
2023/05/27 10:18:52;;;;;;;11.40;4.90;;;20.00;47.60;;;;;;4976736;28;20117;-48
2023/05/27 10:21:21;;;;;;;12.03;4.97;;;20.00;47.90;;;;;;4984416;28;20085;-48
2023/05/27 10:24:10;;;;;;;10.27;4.30;;;20.10;47.60;;;;;;4986556;28;20062;-44
2023/05/27 10:26:40;;;;;;;12.48;4.93;;;20.10;48.00;;;;;;4988095;28;20499;-44
2023/05/27 10:29:15;;;;;;;13.10;5.00;;;20.20;47.20;;;;;;4990080;28;20509;-46
2023/05/27 10:31:46;;;;;;;8.23;4.95;;;20.30;47.30;;;;;;4987701;28;20700;-44
2023/05/27 10:34:19;;;;;;;11.15;5.45;;;20.30;47.30;;;;;;4989105;28;20043;-49
2023/05/27 10:36:45;;;;;;;11.15;4.68;;;20.40;47.40;;;;;;4983633;28;20121;-44
2023/05/27 10:39:15;;;;;;;10.13;5.40;;;20.50;47.20;;;;;;4990640;28;20130;-44
2023/05/27 10:41:43;;;;;;;8.50;4.57;;;20.50;46.60;;;;;;4987947;28;20046;-43
2023/05/27 10:44:10;;;;;;;11.32;4.28;;;20.60;46.30;;;;;;4989365;28;20121;-46
2023/05/27 10:46:42;;;;;;;9.02;4.53;;;20.60;46.20;;;;;;4988506;28;20069;-45
2023/05/27 10:49:22;;;;;;;7.07;3.97;;;20.70;45.50;;;;;;4990269;28;20046;-45
2023/05/27 10:51:49;;;;;;;8.93;3.58;;;20.80;45.80;;;;;;4983255;28;20077;-47
2023/05/27 10:54:16;;;;;;;9.32;4.07;;;20.90;45.90;;;;;;4988137;28;20157;-48
2023/05/27 10:56:55;;;;;;;8.02;4.43;;;21.00;44.90;;;;;;4987614;28;20132;-47
2023/05/27 10:59:23;;;;;;;6.97;3.65;;;21.00;44.00;;;;;;4989460;28;20040;-46
2023/05/27 11:01:53;;;;;;;6.97;3.80;;;21.10;43.50;;;;;;4988315;28;20058;-45
2023/05/27 11:04:21;;;;;;;10.57;5.20;;;21.10;43.50;;;;;;4966643;28;20043;-44
2023/05/27 11:07:00;;;;;;;7.43;3.78;;;21.20;44.10;;;;;;4988378;28;20133;-44
2023/05/27 11:09:31;;;;;;;12.02;3.72;;;21.30;44.20;;;;;;4982372;28;20042;-44
2023/05/27 11:12:02;;;;;;;9.90;4.78;;;21.40;44.10;;;;;;4987171;28;20533;-44
2023/05/27 11:14:30;;;;;;;9.57;3.45;;;21.50;43.10;;;;;;4987828;28;20046;-44
2023/05/27 11:16:57;;;;;;;7.57;4.55;;;21.50;42.90;;;;;;4988581;28;20053;-48
2023/05/27 11:19:23;;;;;;;8.43;3.65;;;21.60;43.00;;;;;;4988116;28;20422;-44
2023/05/27 11:21:50;;;;;;;10.63;4.80;;;21.70;42.50;;;;;;4988712;28;20133;-48
2023/05/27 11:24:18;;;;;;;10.00;4.32;;;21.80;42.70;;;;;;4990170;28;20066;-49
2023/05/27 11:26:46;;;;;;;10.30;4.47;;;21.80;42.30;;;;;;4990295;28;20058;-44
2023/05/27 11:29:14;;;;;;;8.10;3.47;;;21.90;42.30;;;;;;4994072;28;20047;-46
2023/05/27 11:31:45;;;;;;;8.82;3.90;;;21.90;42.20;;;;;;4992109;28;20566;-48
2023/05/27 11:34:14;;;;;;;8.95;4.10;;;22.00;42.30;;;;;;4992784;28;20113;-44
2023/05/27 11:36:44;;;;;;;7.97;4.00;;;22.10;42.50;;;;;;4992123;28;20554;-46
2023/05/27 11:39:13;;;;;;;10.05;4.65;;;22.20;42.20;;;;;;4991678;28;20042;-44
2023/05/27 11:41:53;;;;;;;9.10;4.20;;;22.30;42.10;;;;;;4990992;28;20392;-45
2023/05/27 11:44:21;;;;;;;10.82;3.95;;;22.30;41.60;;;;;;4992764;28;20129;-45
2023/05/27 11:46:49;;;;;;;8.00;4.18;;;22.40;42.40;;;;;;4990619;28;20046;-44
2023/05/27 11:49:19;;;;;;;12.23;5.10;;;22.50;41.80;;;;;;4991991;28;20097;-44
2023/05/27 11:51:49;;;;;;;5.22;3.05;;;22.60;40.80;;;;;;4983852;28;20586;-44
2023/05/27 11:54:30;;;;;;;10.52;4.45;;;22.60;40.90;;;;;;4992016;28;20529;-44
2023/05/27 11:56:58;;;;;;;8.50;3.55;;;22.70;41.60;;;;;;4990553;28;20395;-44
2023/05/27 11:59:25;;;;;;;9.75;4.07;;;22.80;41.70;;;;;;4991574;28;20046;-44
2023/05/27 12:01:53;;;;;;;9.85;5.00;;;22.80;41.20;;;;;;4990816;28;20506;-46
2023/05/27 12:04:20;;;;;;;9.05;3.92;;;22.90;41.10;;;;;;4993800;28;20065;-45
2023/05/27 12:06:47;;;;;;;8.57;3.95;;;22.90;40.70;;;;;;5000111;28;20046;-49
2023/05/27 12:09:15;;;;;;;9.02;3.90;;;23.00;40.80;;;;;;4992784;28;20407;-45
2023/05/27 12:11:41;;;;;;;10.50;4.82;;;23.10;41.30;;;;;;4992272;28;20034;-45
2023/05/27 12:14:08;;;;;;;6.53;3.75;;;23.20;41.00;;;;;;4992722;28;20042;-45
2023/05/27 12:16:35;;;;;;;6.93;3.50;;;23.30;40.50;;;;;;4990814;28;20097;-43
2023/05/27 12:19:02;;;;;;;10.85;3.97;;;23.40;40.20;;;;;;4992760;28;20049;-49
2023/05/27 12:21:29;;;;;;;7.25;3.72;;;23.50;40.60;;;;;;4991994;28;20042;-44
2023/05/27 12:23:56;;;;;;;13.77;5.60;;;23.60;39.70;;;;;;5116891;23;20454;-44
2023/05/27 12:26:22;;;;;;;11.15;4.50;;;23.70;40.50;;;;;;4998875;28;20046;-46
2023/05/27 12:28:50;;;;;;;10.80;4.28;;;23.80;39.40;;;;;;5010644;28;20092;-48
2023/05/27 12:31:17;;;;;;;9.55;4.90;;;23.90;39.40;;;;;;5004665;28;20507;-46
2023/05/27 12:33:44;;;;;;;9.35;3.67;;;24.00;39.10;;;;;;4996152;28;20042;-49
2023/05/27 12:36:11;;;;;;;10.32;4.93;;;24.10;38.80;;;;;;4991112;28;20046;-48
2023/05/27 12:38:40;;;;;;;7.90;4.20;;;24.20;40.00;;;;;;4990655;28;20640;-44
2023/05/27 12:41:07;;;;;;;7.60;3.70;;;24.30;38.60;;;;;;4992106;28;20113;-48
2023/05/27 12:43:34;;;;;;;7.00;3.20;;;24.40;38.50;;;;;;4987963;28;20122;-49
2023/05/27 12:46:01;;;;;;;7.47;3.30;;;24.50;38.00;;;;;;4990931;28;20049;-49
2023/05/27 12:48:27;;;;;;;11.70;4.28;;;24.60;37.60;;;;;;4990538;28;20050;-49
2023/05/27 12:50:54;;;;;;;5.65;3.38;;;24.70;37.00;;;;;;4989652;28;20070;-47
2023/05/27 12:53:21;;;;;;;5.85;3.30;;;24.80;37.60;;;;;;4990178;28;20125;-47
2023/05/27 12:55:48;;;;;;;7.72;3.67;;;24.90;37.20;;;;;;4989623;28;20049;-46
2023/05/27 12:58:17;;;;;;;7.68;4.32;;;25.00;37.00;;;;;;4990688;28;20065;-46
2023/05/27 13:00:44;;;;;;;11.20;4.03;;;25.10;36.80;;;;;;4989539;28;20039;-49
2023/05/27 13:03:11;;;;;;;9.98;4.60;;;25.30;36.50;;;;;;4991374;28;20046;-48
2023/05/27 13:05:38;;;;;;;11.52;3.95;;;25.40;37.00;;;;;;4990299;28;20068;-50